Details From HESH - Sharm El Sheikh Intl
To LJLJ - Ljubljana
Flight Number -
Tags Decoded
Created
Modified
Stats Distance 2,329 nm / 4,314 km
Max Altitude 25,000 ft / 7,620 m
Waypoints 5
Social Downloads 0
Likes 0
Share VATSIM

Download

Looking for another format? Having issues loading an existing format? Contact us
Advertisement - Login to hide

Notes

Decoded

Route

HESH REBRO KAM OM LJLJ

ID Type Via Altitude Latitude Longitude Leg Dist Tot Dist Heading (true) Name
O HESH APT - 0 ft / 0 m 27.96574˚ 34.38598˚ - 0 nm - -
REBRO FIX - 25,000 ft / 7,620 m 46.11284˚ 14.37304˚ 1443 nm 1443 nm 324° / 312° -
KAM NDB - 25,000 ft / 7,620 m 46.10500˚ 14.67546˚ 12 nm 1456 nm 92° / 92° DOLSKO NDB
OM FIX - 25,000 ft / 7,620 m 42.69829˚ 23.51072˚ 430 nm 1886 nm 115° / 121° -
O LJLJ APT - 0 ft / 0 m 46.23249˚ 14.44039˚ 442 nm 2329 nm 302° / 295° -

Altitude Profile

Advertisement - Login to hide

Weather


0- 5 10 15 20 25 30 35+ Temperature / ° C

Clouds and Precipitation
Forecast for 2017-12-16 06:00 UTC. Updated an hour ago

Ground ~20,000 ft ~40,000 ft Winds

HESH

Details ICAO HESH (SSH)
Name SHARM EL SHEIKH INTL
Region Egypt
Timezone Africa/Cairo (UTC+2.0)
Stats Elevation 143 ft / 44 m (AMSL)
Location 27.977318° 34.394945°
Runways 2
Magnetic Variation 4.282° E

METAR

HESH 160100Z 35007KT CAVOK 17/04 Q1020 NOSIG

Decode

TAF

Not found

Departure Runways

ID Width Length Bearing (true) Bearing (mag) Surface Threshold Offset Overrun Length
04L 148 ft / 45 m 10,120 ft / 3,085 m 42.65° 38.37° Asphalt 0 ft / 0 m 200 ft / 61 m
04R 148 ft / 45 m 10,121 ft / 3,085 m 42.65° 38.37° Asphalt 0 ft / 0 m 200 ft / 61 m
22L 148 ft / 45 m 10,121 ft / 3,085 m 222.66° 218.38° Asphalt 0 ft / 0 m 200 ft / 61 m
22R 148 ft / 45 m 10,120 ft / 3,085 m 222.66° 218.38° Asphalt 0 ft / 0 m 200 ft / 61 m

LJLJ

Details ICAO LJLJ (LJU)
Name LJUBLJANA
Region Slovenia
Timezone Europe/Ljubljana (UTC+1.0)
Stats Elevation 1,273 ft / 388 m (AMSL)
Location 46.223685° 14.457608°
Runways 1
Magnetic Variation 3.662° E

METAR

LJLJ 160200Z VRB01KT 4000 -SN BR BKN003 BKN010 00/M00 Q1001 NOSIG

Decode

TAF

TAF LJLJ 160200Z 1603/1703 11003KT 3500 -SN BR BKN003 BKN012 BECMG 1606/1609 7000 NSW SCT010 BKN025 BECMG 1612/1615 9999 SCT020 PROB30 TEMPO 1615/1624 BKN020 PROB40 TEMPO 1700/1703 0600 FZFG VV001

Decode

Destination Runways

ID Width Length Bearing (true) Bearing (mag) Surface Threshold Offset Overrun Length
13 148 ft / 45 m 10,811 ft / 3,295 m 126.47° 122.81° Asphalt 0 ft / 0 m 0 ft / 0 m
31 148 ft / 45 m 10,811 ft / 3,295 m 306.49° 302.83° Asphalt 0 ft / 0 m 0 ft / 0 m

Approach Navaids

Runway Type Ident Frequency Range Bearing (true) Bearing (mag) Slope Elevation
31 Localiser LJB 110.50 MHz 18 nm / 33 km 306.46° 302.80° - 1,282 ft / 391 m (AMSL)
31 Glidescope LJB 110.50 MHz 10 nm / 19 km 306.48° 302.82° 3.00° 1,198 ft / 365 m (AMSL)
31 DME LJB 110.50 MHz 18 nm / 33 km - - - 1,198 ft / 365 m (AMSL)